Huvudsida
METAR-TAF:

METAR-TAF

Flygplatser :

Figari, Frankrike

latitud: 41-30N, longitud: 009-06E, höjd: 26 m

Aktuellt väderrapport

Denna rapport gjordes för 12 minuter sedan, klockan 21:00 UTC
Vind 16 kt från sydväst
Temperatur 15°C
Fuktighet 82%
Tryck 1013 hPa
Sikt 10 km eller mer
Få moln på en höjd av 2400 ft

METAR: LFKF 142100Z AUTO 23016KT 9999 FEW024 15/12 Q1013 BECMG 28015G25KT

Tid: 22:12 (21:12 UTC)

Väderprognos

Denna rapport gjordes för 7 timmar och 12 minuter sedan, klockan 14:00 UTC
Prognos gäller från 14 kl. 15 UTC till 15 kl. 15 UTC
Vind 23 kt från väst/nordväst i byarna ända upp till 35 kt
Sikt 10 km eller mer
Inga moln under 1 500 m eller inga cumulonimbus
Blir
från 14 kl. 18 UTC till 14 kl. 20 UTC
Vind 15 kt från väst i byarna ända upp till 25 kt
Blir
från 15 kl. 04 UTC till 15 kl. 06 UTC
Vind 10 kt från väst
Spridda moln på en höjd av 1600 ft

TAF: LFKF 141400Z 1415/1515 30023G35KT CAVOK BECMG 1418/1420 28015G25KT BECMG 1504/1506 26010KT SCT016

Aktuella väderrapporter och prognoser från 4000 flygplatser (METAR- och TAF-rapporter).

De tillgängliga stationerna syns som gula och röda prickar på kartan.

För musen över prickarna för att se namnen på stationerna.

Klicka sedan för att få väderrapporter och prognoser.

För att ändra kartan: Klicka på de gröna knapparna med ett svart kors på för att zooma in; den gröna knappen med ett streck på för att zooma ut; eller på de gröna pilarna för angränsande kartor.


METAR-TAF: